createdAt,value
2023-04-12T00:00:19.427Z,2.00
2023-04-12T00:02:47.369Z,2.17
2023-04-12T00:05:15.312Z,1.80
2023-04-12T00:07:46.838Z,1.93
2023-04-12T00:10:16.115Z,2.30
2023-04-12T00:12:43.919Z,1.80
2023-04-12T00:15:12.268Z,1.60
2023-04-12T00:17:40.147Z,1.87
2023-04-12T00:20:12.704Z,1.30
2023-04-12T00:22:41.277Z,1.50
2023-04-12T00:25:09.651Z,1.40
2023-04-12T00:27:39.013Z,1.53
2023-04-12T00:30:08.353Z,1.30
2023-04-12T00:32:36.414Z,1.27
2023-04-12T00:35:04.255Z,1.40
2023-04-12T00:37:32.049Z,1.17
2023-04-12T00:39:59.833Z,1.43
2023-04-12T00:42:27.662Z,1.20
2023-04-12T00:44:56.761Z,1.10
2023-04-12T00:47:24.675Z,1.20
2023-04-12T00:49:52.463Z,1.40
2023-04-12T00:52:22.114Z,1.47
2023-04-12T00:54:51.727Z,1.30
2023-04-12T00:57:19.570Z,1.43
2023-04-12T00:59:48.545Z,1.20
2023-04-12T01:02:18.572Z,1.03
2023-04-12T01:04:50.506Z,1.40
2023-04-12T01:07:26.315Z,1.17
2023-04-12T01:10:00.646Z,1.70
2023-04-12T01:12:37.183Z,1.13
2023-04-12T01:15:08.532Z,1.40
2023-04-12T01:17:57.016Z,1.10
2023-04-12T01:20:27.799Z,1.43
2023-04-12T01:23:17.055Z,1.07
2023-04-12T01:26:03.988Z,1.60
2023-04-12T01:28:35.926Z,1.17
2023-04-12T01:31:04.925Z,1.50
2023-04-12T01:33:34.888Z,1.80
2023-04-12T01:36:07.566Z,1.10
2023-04-12T01:38:35.833Z,1.30
2023-04-12T01:41:04.389Z,1.30
2023-04-12T01:43:32.143Z,1.00
2023-04-12T01:46:01.492Z,1.20
2023-04-12T01:48:29.399Z,1.30
2023-04-12T01:51:06.788Z,1.23
2023-04-12T01:53:43.778Z,1.30
2023-04-12T01:56:12.552Z,1.30
2023-04-12T01:58:44.892Z,1.10
2023-04-12T02:01:16.315Z,1.30
2023-04-12T02:03:45.158Z,1.13
2023-04-12T02:06:13.921Z,1.23
2023-04-12T02:08:41.719Z,1.10
2023-04-12T02:11:10.323Z,1.10
2023-04-12T02:13:38.172Z,1.00
2023-04-12T02:16:07.803Z,1.03
2023-04-12T02:18:37.031Z,1.20
2023-04-12T02:21:04.913Z,1.10
2023-04-12T02:23:32.776Z,1.30
2023-04-12T02:26:00.979Z,1.60
2023-04-12T02:28:28.770Z,1.50
2023-04-12T02:30:56.548Z,1.37
2023-04-12T02:33:28.039Z,1.33
2023-04-12T02:35:58.065Z,1.20
2023-04-12T02:38:25.806Z,1.10
2023-04-12T02:40:53.618Z,1.27
2023-04-12T02:43:21.381Z,1.20
2023-04-12T02:45:50.013Z,1.30
2023-04-12T02:48:17.795Z,0.90
2023-04-12T02:50:45.553Z,1.20
2023-04-12T02:53:14.632Z,0.93
2023-04-12T02:55:42.443Z,1.10
2023-04-12T02:58:10.214Z,1.10
2023-04-12T03:00:38.024Z,1.17
2023-04-12T03:03:06.431Z,0.83
2023-04-12T03:05:34.350Z,1.10
2023-04-12T03:08:02.467Z,1.07
2023-04-12T03:10:31.724Z,1.00
2023-04-12T03:12:59.508Z,1.00
2023-04-12T03:15:28.086Z,1.10
2023-04-12T03:17:55.899Z,1.00
2023-04-12T03:20:25.109Z,1.10
2023-04-12T03:22:52.843Z,0.77
2023-04-12T03:25:20.797Z,1.00
2023-04-12T03:27:49.983Z,1.03
2023-04-12T03:30:17.806Z,0.90
2023-04-12T03:32:45.764Z,0.83
2023-04-12T03:35:13.557Z,0.83
2023-04-12T03:37:43.376Z,1.27
2023-04-12T03:40:11.712Z,1.00
2023-04-12T03:42:39.544Z,1.33
2023-04-12T03:45:09.504Z,1.27
2023-04-12T03:47:37.636Z,1.07
2023-04-12T03:52:38.532Z,1.23
2023-04-12T03:55:07.600Z,1.00
2023-04-12T03:57:36.062Z,1.10
2023-04-12T04:00:04.408Z,1.27
2023-04-12T04:02:33.740Z,1.07
2023-04-12T04:05:02.303Z,1.00
2023-04-12T04:07:31.630Z,1.10
2023-04-12T04:09:59.505Z,1.30
2023-04-12T04:12:27.994Z,1.20
2023-04-12T04:14:55.767Z,1.00
2023-04-12T04:17:23.584Z,1.20
2023-04-12T04:19:52.742Z,1.40
2023-04-12T04:22:21.498Z,0.90
2023-04-12T04:24:50.128Z,1.47
2023-04-12T04:27:17.908Z,0.90
2023-04-12T04:29:45.761Z,1.37
2023-04-12T04:32:13.668Z,0.80
2023-04-12T04:34:41.415Z,1.30
2023-04-12T04:37:10.557Z,1.00
2023-04-12T04:39:38.306Z,1.40
2023-04-12T04:42:06.622Z,1.40
2023-04-12T04:44:36.113Z,1.00
2023-04-12T04:47:04.946Z,1.30
2023-04-12T04:49:33.685Z,0.83
2023-04-12T04:52:01.489Z,1.10
2023-04-12T04:54:30.924Z,0.83
2023-04-12T04:56:59.437Z,1.10
2023-04-12T04:59:27.514Z,1.30
2023-04-12T05:01:55.420Z,0.97
2023-04-12T05:04:23.311Z,1.17
2023-04-12T05:06:51.115Z,0.90
2023-04-12T05:09:18.878Z,0.70
2023-04-12T05:11:47.981Z,1.17
2023-04-12T05:14:15.769Z,0.80
2023-04-12T05:16:43.656Z,1.20
2023-04-12T05:19:11.755Z,1.10
2023-04-12T05:21:39.780Z,0.90
2023-04-12T05:24:08.248Z,0.80
2023-04-12T05:26:36.065Z,1.07
2023-04-12T05:29:08.163Z,0.83
2023-04-12T05:31:35.991Z,1.10
2023-04-12T05:34:03.739Z,1.03
2023-04-12T05:36:31.847Z,1.77
2023-04-12T05:38:59.594Z,0.97
2023-04-12T05:41:27.378Z,1.00
2023-04-12T05:43:55.225Z,0.87
2023-04-12T05:46:24.344Z,1.00
2023-04-12T05:48:52.112Z,1.20
2023-04-12T05:51:27.851Z,1.47
2023-04-12T05:54:03.904Z,1.37
2023-04-12T05:56:31.670Z,1.13
2023-04-12T05:59:01.047Z,1.10
2023-04-12T06:01:32.455Z,1.13
2023-04-12T06:04:02.286Z,1.20
2023-04-12T06:06:30.318Z,1.10
2023-04-12T06:09:00.211Z,1.00
2023-04-12T06:11:28.230Z,1.07
2023-04-12T06:13:56.031Z,1.47
2023-04-12T06:16:23.880Z,1.30
2023-04-12T06:18:53.089Z,1.13
2023-04-12T06:21:21.097Z,1.13
2023-04-12T06:23:48.843Z,0.80
2023-04-12T06:26:18.420Z,1.00
2023-04-12T06:28:46.610Z,0.90
2023-04-12T06:31:14.708Z,1.30
2023-04-12T06:33:42.855Z,1.23
2023-04-12T06:36:12.760Z,1.07
2023-04-12T06:38:40.959Z,1.00
2023-04-12T06:41:08.731Z,1.40
2023-04-12T06:43:36.938Z,1.13
2023-04-12T06:46:04.978Z,1.40
2023-04-12T06:48:32.792Z,1.40
2023-04-12T06:51:01.470Z,1.43
2023-04-12T06:53:31.357Z,1.80
2023-04-12T06:55:59.198Z,1.10
2023-04-12T06:58:26.988Z,1.10
2023-04-12T07:00:54.808Z,1.40
2023-04-12T07:03:24.670Z,1.00
2023-04-12T07:05:56.670Z,1.00
2023-04-12T07:08:24.390Z,1.30
2023-04-12T07:10:56.116Z,1.33
2023-04-12T07:13:23.916Z,1.60
2023-04-12T07:15:51.709Z,1.30
2023-04-12T07:18:19.472Z,1.73
2023-04-12T07:20:47.851Z,1.43
2023-04-12T07:23:15.950Z,1.43
2023-04-12T07:25:43.916Z,1.50
2023-04-12T07:28:13.082Z,1.30
2023-04-12T07:30:40.916Z,1.73
2023-04-12T07:33:19.010Z,2.10
2023-04-12T07:35:47.821Z,0.93
2023-04-12T07:38:16.887Z,1.30
2023-04-12T07:40:45.695Z,1.33
2023-04-12T07:43:17.320Z,2.23
2023-04-12T07:45:45.840Z,1.30
2023-04-12T07:48:13.625Z,1.07
2023-04-12T07:50:41.402Z,0.90
2023-04-12T07:53:20.602Z,1.23
2023-04-12T07:55:48.887Z,1.20
2023-04-12T07:58:19.004Z,1.53
2023-04-12T08:00:47.613Z,1.77
2023-04-12T08:03:16.941Z,1.87
2023-04-12T08:05:45.241Z,1.30
2023-04-12T08:08:13.126Z,1.37
2023-04-12T08:10:41.371Z,1.50
2023-04-12T08:13:09.160Z,1.47
2023-04-12T08:15:38.540Z,1.70
2023-04-12T08:18:06.540Z,1.57
2023-04-12T08:20:34.386Z,1.50
2023-04-12T08:23:02.143Z,1.93
2023-04-12T08:25:29.862Z,1.50
2023-04-12T08:27:57.670Z,1.73
2023-04-12T08:30:26.812Z,1.30
2023-04-12T08:32:56.107Z,1.23
2023-04-12T08:35:24.376Z,1.37
2023-04-12T08:37:52.228Z,1.60
2023-04-12T08:40:21.599Z,1.77
2023-04-12T08:42:49.463Z,1.37
2023-04-12T08:45:17.216Z,1.70
2023-04-12T08:47:46.499Z,1.70
2023-04-12T08:50:17.172Z,1.00
2023-04-12T08:52:44.994Z,1.57
2023-04-12T08:55:13.675Z,1.50
2023-04-12T08:57:43.076Z,2.33
2023-04-12T09:00:13.048Z,1.77
2023-04-12T09:02:43.317Z,1.57
2023-04-12T09:05:12.338Z,1.40
2023-04-12T09:07:41.660Z,1.47
2023-04-12T09:10:10.032Z,1.50
2023-04-12T09:12:46.843Z,1.27
2023-04-12T09:15:17.574Z,1.37
2023-04-12T09:17:45.561Z,1.30
2023-04-12T09:20:34.082Z,1.50
2023-04-12T09:23:17.137Z,1.30
2023-04-12T09:25:48.078Z,0.90
2023-04-12T09:28:24.372Z,1.37
2023-04-12T09:30:53.500Z,1.50
2023-04-12T09:33:23.047Z,1.10
2023-04-12T09:35:51.038Z,1.83
2023-04-12T09:38:20.271Z,1.73
2023-04-12T09:40:48.578Z,1.40
2023-04-12T09:43:16.605Z,1.07
2023-04-12T09:45:44.390Z,1.37
2023-04-12T09:48:21.557Z,1.40
2023-04-12T09:50:49.447Z,1.63
2023-04-12T09:53:19.803Z,1.60
2023-04-12T09:55:48.778Z,1.60
2023-04-12T09:58:21.219Z,1.27
2023-04-12T10:00:49.318Z,1.73
2023-04-12T10:03:17.257Z,1.40
2023-04-12T10:05:45.280Z,1.50
2023-04-12T10:08:13.327Z,1.30
2023-04-12T10:10:45.380Z,1.70
2023-04-12T10:13:13.720Z,1.10
2023-04-12T10:15:42.167Z,1.40
2023-04-12T10:18:12.445Z,1.10
2023-04-12T10:20:42.258Z,1.80
2023-04-12T10:23:10.698Z,1.33
2023-04-12T10:25:40.204Z,1.10
2023-04-12T10:28:21.406Z,1.30
2023-04-12T10:30:51.934Z,1.30
2023-04-12T10:33:25.867Z,1.27
2023-04-12T10:35:56.826Z,1.10
2023-04-12T10:38:27.139Z,1.30
2023-04-12T10:41:15.782Z,1.47
2023-04-12T10:43:45.685Z,1.20
2023-04-12T10:46:50.991Z,0.93
2023-04-12T10:49:19.493Z,0.80
2023-04-12T10:52:14.250Z,0.93
2023-04-12T10:54:42.352Z,1.03
2023-04-12T10:57:47.076Z,1.00
2023-04-12T11:00:17.602Z,1.20
2023-04-12T11:03:09.914Z,0.90
2023-04-12T11:06:06.763Z,0.93
2023-04-12T11:08:41.017Z,1.20
2023-04-12T11:11:20.802Z,0.80
2023-04-12T11:13:48.675Z,0.97
2023-04-12T11:16:17.810Z,0.80
2023-04-12T11:18:48.017Z,1.00
2023-04-12T11:21:16.373Z,1.10
2023-04-12T11:23:45.216Z,1.10
2023-04-12T11:26:13.238Z,1.10
2023-04-12T11:28:41.025Z,0.70
2023-04-12T11:31:08.909Z,0.97
2023-04-12T11:33:39.775Z,0.90
2023-04-12T11:36:09.606Z,1.10
2023-04-12T11:38:38.435Z,0.90
2023-04-12T11:41:08.648Z,0.80
2023-04-12T11:43:38.453Z,0.80
2023-04-12T11:46:06.990Z,0.90
2023-04-12T11:48:35.020Z,1.13
2023-04-12T11:51:19.899Z,0.70
2023-04-12T11:53:47.683Z,0.80
2023-04-12T11:56:15.488Z,1.10
2023-04-12T11:58:43.375Z,1.20
2023-04-12T12:01:11.721Z,0.80
2023-04-12T12:03:39.632Z,1.10
2023-04-12T12:06:10.068Z,1.20
2023-04-12T12:08:38.668Z,1.20
2023-04-12T12:11:08.704Z,1.10
2023-04-12T12:13:47.827Z,1.20
2023-04-12T12:16:15.875Z,1.10
2023-04-12T12:18:44.559Z,1.07
2023-04-12T12:21:14.787Z,1.00
2023-04-12T12:23:44.518Z,1.00
2023-04-12T12:26:21.785Z,1.20
2023-04-12T12:28:53.492Z,0.90
2023-04-12T12:31:22.621Z,1.20
2023-04-12T12:33:54.843Z,1.03
2023-04-12T12:36:32.005Z,1.00
2023-04-12T12:39:06.694Z,0.90
2023-04-12T12:41:34.674Z,0.80
2023-04-12T12:44:02.612Z,1.20
2023-04-12T12:46:44.629Z,1.07
2023-04-12T12:49:18.660Z,0.90
2023-04-12T12:51:47.862Z,1.10
2023-04-12T12:54:28.431Z,1.00
2023-04-12T12:56:59.863Z,1.00
2023-04-12T12:59:27.588Z,0.90
2023-04-12T13:01:55.775Z,1.00
2023-04-12T13:04:23.758Z,0.90
2023-04-12T13:06:53.232Z,0.93
2023-04-12T13:09:21.022Z,0.80
2023-04-12T13:11:48.882Z,0.90
2023-04-12T13:14:16.754Z,1.10
2023-04-12T13:16:46.064Z,1.00
2023-04-12T13:19:14.106Z,1.20
2023-04-12T13:21:41.893Z,0.90
2023-04-12T13:24:11.190Z,0.83
2023-04-12T13:26:39.012Z,0.80
2023-04-12T13:29:06.823Z,1.07
2023-04-12T13:31:34.620Z,1.00
2023-04-12T13:34:02.421Z,1.00
2023-04-12T13:36:30.888Z,0.80
2023-04-12T13:38:58.878Z,0.70
2023-04-12T13:41:28.242Z,0.73
2023-04-12T13:43:56.018Z,0.90
2023-04-12T13:46:23.985Z,0.80
2023-04-12T13:48:51.895Z,0.93
2023-04-12T13:51:19.660Z,0.90
2023-04-12T13:53:47.471Z,0.70
2023-04-12T13:56:15.922Z,0.90
2023-04-12T13:58:45.293Z,1.00
2023-04-12T14:01:14.075Z,1.00
2023-04-12T14:03:42.104Z,0.80
2023-04-12T14:06:10.429Z,1.00
2023-04-12T14:08:38.354Z,0.90
2023-04-12T14:11:07.130Z,0.97
2023-04-12T14:13:34.877Z,0.93
2023-04-12T14:16:03.986Z,0.90
2023-04-12T14:18:31.792Z,0.93
2023-04-12T14:20:59.617Z,1.10
2023-04-12T14:23:27.611Z,0.83
2023-04-12T14:25:55.453Z,0.77
2023-04-12T14:28:24.246Z,0.70
2023-04-12T14:30:52.598Z,0.90
2023-04-12T14:33:21.796Z,1.00
2023-04-12T14:35:49.601Z,1.20
2023-04-12T14:38:17.381Z,0.87
2023-04-12T14:40:45.252Z,1.03
2023-04-12T14:43:13.015Z,0.70
2023-04-12T14:45:40.964Z,1.00
2023-04-12T14:48:08.837Z,0.80
2023-04-12T14:50:38.041Z,0.80
2023-04-12T14:53:05.943Z,1.10
2023-04-12T14:55:33.867Z,0.70
2023-04-12T14:58:01.833Z,1.00
2023-04-12T15:00:29.679Z,0.80
2023-04-12T15:03:00.630Z,0.93
2023-04-12T15:05:29.122Z,1.00
2023-04-12T15:07:58.428Z,0.87
2023-04-12T15:10:26.375Z,0.97
2023-04-12T15:12:54.127Z,0.67
2023-04-12T15:15:22.568Z,0.87
2023-04-12T15:17:50.629Z,0.80
2023-04-12T15:20:18.605Z,0.73
2023-04-12T15:22:46.447Z,0.67
2023-04-12T15:25:15.720Z,0.80
2023-04-12T15:27:44.047Z,0.70
2023-04-12T15:30:15.219Z,1.00
2023-04-12T15:32:43.020Z,0.83
2023-04-12T15:37:42.461Z,0.70
2023-04-12T15:40:13.676Z,0.80
2023-04-12T15:42:44.229Z,0.90
2023-04-12T15:45:13.033Z,0.80
2023-04-12T15:47:41.237Z,0.90
2023-04-12T15:50:10.124Z,0.80
2023-04-12T15:52:37.954Z,0.90
2023-04-12T15:55:06.466Z,0.90
2023-04-12T15:57:34.381Z,0.90
2023-04-12T16:00:12.415Z,0.80
2023-04-12T16:02:40.496Z,0.80
2023-04-12T16:05:08.695Z,0.70
2023-04-12T16:07:36.533Z,0.80
2023-04-12T16:10:06.183Z,0.80
2023-04-12T16:12:34.419Z,1.03
2023-04-12T16:15:04.287Z,0.70
2023-04-12T16:17:33.647Z,0.70
2023-04-12T16:20:01.445Z,0.70
2023-04-12T16:22:29.221Z,0.60
2023-04-12T16:24:57.896Z,0.80
2023-04-12T16:27:29.298Z,1.00
2023-04-12T16:29:57.444Z,0.70
2023-04-12T16:32:26.775Z,0.93
2023-04-12T16:34:54.602Z,1.03
2023-04-12T16:37:22.711Z,1.00
2023-04-12T16:39:51.026Z,0.90
2023-04-12T16:42:21.524Z,0.97
2023-04-12T16:44:49.303Z,0.70
2023-04-12T16:47:17.145Z,0.80
2023-04-12T16:49:46.664Z,0.90
2023-04-12T16:52:15.370Z,0.83
2023-04-12T16:54:43.151Z,1.07
2023-04-12T16:57:11.714Z,0.90
2023-04-12T16:59:42.250Z,0.80
2023-04-12T17:02:10.320Z,1.50
2023-04-12T17:04:38.048Z,0.93
2023-04-12T17:07:07.154Z,1.43
2023-04-12T17:09:40.456Z,0.93
2023-04-12T17:12:08.946Z,1.07
2023-04-12T17:14:37.262Z,0.90
2023-04-12T17:17:06.498Z,0.90
2023-04-12T17:19:34.806Z,0.93
2023-04-12T17:22:02.600Z,1.10
2023-04-12T17:24:31.725Z,1.00
2023-04-12T17:26:59.568Z,0.93
2023-04-12T17:29:27.730Z,0.80
2023-04-12T17:31:55.538Z,1.07
2023-04-12T17:34:23.361Z,0.90
2023-04-12T17:36:55.051Z,0.77
2023-04-12T17:39:22.837Z,0.77
2023-04-12T17:41:51.942Z,0.80
2023-04-12T17:44:19.711Z,0.80
2023-04-12T17:46:47.434Z,1.03
2023-04-12T17:49:15.425Z,0.70
2023-04-12T17:51:44.294Z,0.90
2023-04-12T17:54:12.376Z,0.77
2023-04-12T17:56:40.301Z,0.80
2023-04-12T17:59:11.242Z,0.70
2023-04-12T18:01:39.069Z,0.70
2023-04-12T18:04:07.410Z,0.80
2023-04-12T18:06:35.360Z,0.60
2023-04-12T18:09:03.828Z,0.60
2023-04-12T18:11:31.635Z,0.70
2023-04-12T18:13:59.495Z,1.10
2023-04-12T18:16:28.982Z,0.87
2023-04-12T18:18:57.137Z,0.57
2023-04-12T18:21:26.009Z,0.70
2023-04-12T18:23:53.825Z,0.70
2023-04-12T18:26:22.823Z,0.60
2023-04-12T18:28:50.792Z,0.70
2023-04-12T18:31:20.257Z,0.60
2023-04-12T18:33:50.172Z,0.60
2023-04-12T18:36:18.250Z,0.50
2023-04-12T18:38:46.240Z,0.60
2023-04-12T18:41:15.351Z,0.50
2023-04-12T18:43:43.271Z,0.73
2023-04-12T18:46:17.716Z,0.83
2023-04-12T18:48:47.847Z,0.90
2023-04-12T18:51:16.993Z,0.70
2023-04-12T18:53:44.785Z,0.80
2023-04-12T18:56:13.653Z,0.67
2023-04-12T18:58:54.402Z,0.87
2023-04-12T19:01:23.480Z,0.90
2023-04-12T19:03:51.382Z,0.90
2023-04-12T19:06:21.206Z,0.70
2023-04-12T19:08:49.717Z,0.60
2023-04-12T19:11:17.569Z,0.87
2023-04-12T19:13:45.831Z,0.73
2023-04-12T19:16:13.739Z,0.73
2023-04-12T19:18:41.514Z,0.67
2023-04-12T19:21:09.269Z,0.80
2023-04-12T19:23:38.371Z,0.90
2023-04-12T19:26:06.819Z,0.93
2023-04-12T19:28:34.546Z,1.00
2023-04-12T19:31:08.908Z,0.80
2023-04-12T19:33:38.798Z,0.80
2023-04-12T19:36:07.221Z,0.80
2023-04-12T19:38:35.023Z,1.67
2023-04-12T19:41:04.105Z,0.73
2023-04-12T19:43:31.877Z,0.67
2023-04-12T19:46:01.248Z,0.80
2023-04-12T19:48:29.050Z,0.90
2023-04-12T19:50:56.986Z,0.90
2023-04-12T19:53:25.855Z,0.80
2023-04-12T19:55:58.117Z,0.90
2023-04-12T19:58:27.375Z,0.80
2023-04-12T20:00:55.612Z,0.70
2023-04-12T20:03:23.638Z,0.77
2023-04-12T20:05:51.483Z,0.80
2023-04-12T20:08:19.480Z,0.73
2023-04-12T20:10:47.404Z,0.80
2023-04-12T20:13:16.215Z,0.70
2023-04-12T20:15:45.361Z,0.80
2023-04-12T20:18:13.555Z,0.80
2023-04-12T20:20:43.949Z,0.80
2023-04-12T20:23:12.389Z,0.80
2023-04-12T20:25:41.535Z,0.80
2023-04-12T20:28:09.914Z,0.90
2023-04-12T20:30:38.050Z,0.70
2023-04-12T20:33:08.670Z,1.07
2023-04-12T20:35:36.724Z,0.90
2023-04-12T20:38:04.468Z,1.17
2023-04-12T20:40:32.269Z,1.00
2023-04-12T20:43:00.555Z,0.70
2023-04-12T20:45:28.364Z,0.97
2023-04-12T20:47:56.116Z,0.83
2023-04-12T20:50:25.219Z,0.70
2023-04-12T20:52:52.975Z,0.80
2023-04-12T20:55:22.549Z,0.70
2023-04-12T20:57:50.445Z,0.80
2023-04-12T21:00:19.037Z,0.70
2023-04-12T21:02:47.132Z,0.60
2023-04-12T21:05:16.658Z,0.93
2023-04-12T21:07:46.459Z,0.60
2023-04-12T21:10:15.065Z,0.80
2023-04-12T21:12:44.904Z,0.50
2023-04-12T21:15:13.502Z,0.70
2023-04-12T21:17:41.389Z,0.60
2023-04-12T21:20:13.530Z,0.87
2023-04-12T21:22:43.016Z,1.10
2023-04-12T21:25:16.229Z,0.77
2023-04-12T21:27:46.533Z,0.60
2023-04-12T21:30:15.599Z,0.70
2023-04-12T21:32:43.801Z,0.80
2023-04-12T21:35:12.300Z,0.70
2023-04-12T21:37:40.906Z,0.73
2023-04-12T21:40:09.831Z,0.60
2023-04-12T21:42:39.975Z,0.80
2023-04-12T21:45:09.383Z,0.70
2023-04-12T21:47:37.332Z,0.90
2023-04-12T21:50:07.478Z,1.30
2023-04-12T21:52:35.404Z,0.77
2023-04-12T21:55:04.829Z,1.13
2023-04-12T21:57:33.206Z,0.80
2023-04-12T22:00:05.513Z,0.70
2023-04-12T22:02:33.437Z,0.90
2023-04-12T22:05:01.422Z,0.60
2023-04-12T22:07:29.223Z,0.77
2023-04-12T22:09:58.339Z,0.60
2023-04-12T22:12:26.718Z,0.60
2023-04-12T22:14:57.428Z,0.57
2023-04-12T22:17:26.619Z,0.70
2023-04-12T22:19:56.440Z,0.60
2023-04-12T22:22:24.348Z,0.60
2023-04-12T22:24:53.742Z,0.60
2023-04-12T22:27:21.494Z,0.80
2023-04-12T22:29:50.512Z,0.60
2023-04-12T22:32:18.268Z,0.60
2023-04-12T22:34:54.852Z,0.60
2023-04-12T22:37:29.966Z,0.70
2023-04-12T22:39:57.758Z,0.80
2023-04-12T22:42:29.782Z,0.70
2023-04-12T22:44:58.871Z,0.70
2023-04-12T22:47:27.121Z,0.60
2023-04-12T22:50:01.107Z,0.87
2023-04-12T22:52:30.368Z,0.83
2023-04-12T22:54:58.281Z,0.73
2023-04-12T22:57:26.482Z,0.60
2023-04-12T23:02:36.236Z,0.70
2023-04-12T23:05:06.261Z,0.70
2023-04-12T23:07:34.015Z,0.60
2023-04-12T23:10:02.211Z,0.63
2023-04-12T23:12:30.360Z,0.70
2023-04-12T23:14:58.120Z,0.50
2023-04-12T23:17:26.395Z,0.70
2023-04-12T23:19:54.227Z,0.60
2023-04-12T23:22:48.353Z,0.57
2023-04-12T23:25:22.792Z,0.60
2023-04-12T23:27:51.178Z,0.60
2023-04-12T23:30:20.163Z,0.50
2023-04-12T23:32:47.968Z,0.60
2023-04-12T23:35:15.883Z,0.60
2023-04-12T23:37:45.256Z,0.60
2023-04-12T23:40:15.065Z,0.50
2023-04-12T23:42:44.420Z,0.60
2023-04-12T23:45:12.880Z,0.70
2023-04-12T23:47:40.625Z,0.57
2023-04-12T23:50:09.124Z,0.70
2023-04-12T23:52:37.103Z,0.60
2023-04-12T23:55:07.692Z,0.60
2023-04-12T23:57:35.715Z,0.60
